sensor_id;sensor_type;location;lat;lon;timestamp;P1;durP1;ratioP1;P2;durP2;ratioP2
42186;SDS011;27858;51.414;0.018;2023-04-06T04:01:08;0.40;;;0.40;;
42186;SDS011;27858;51.414;0.018;2023-04-06T04:03:35;0.57;;;0.50;;
42186;SDS011;27858;51.414;0.018;2023-04-06T04:06:01;0.60;;;0.60;;
42186;SDS011;27858;51.414;0.018;2023-04-06T04:08:28;1.17;;;0.80;;
42186;SDS011;27858;51.414;0.018;2023-04-06T04:10:55;1.10;;;0.80;;
42186;SDS011;27858;51.414;0.018;2023-04-06T04:13:22;0.70;;;0.50;;
42186;SDS011;27858;51.414;0.018;2023-04-06T04:15:49;0.75;;;0.75;;
42186;SDS011;27858;51.414;0.018;2023-04-06T04:18:16;1.33;;;0.70;;
42186;SDS011;27858;51.414;0.018;2023-04-06T04:20:42;0.93;;;0.93;;
42186;SDS011;27858;51.414;0.018;2023-04-06T04:23:09;1.05;;;0.80;;
42186;SDS011;27858;51.414;0.018;2023-04-06T04:25:36;1.52;;;1.45;;
42186;SDS011;27858;51.414;0.018;2023-04-06T04:28:03;3.92;;;1.92;;
42186;SDS011;27858;51.414;0.018;2023-04-06T04:30:30;0.57;;;0.57;;
42186;SDS011;27858;51.414;0.018;2023-04-06T04:32:57;1.88;;;1.23;;
42186;SDS011;27858;51.414;0.018;2023-04-06T04:35:24;2.70;;;1.55;;
42186;SDS011;27858;51.414;0.018;2023-04-06T04:37:50;1.33;;;1.20;;
42186;SDS011;27858;51.414;0.018;2023-04-06T04:40:17;1.65;;;1.38;;
42186;SDS011;27858;51.414;0.018;2023-04-06T04:42:44;2.10;;;1.38;;
42186;SDS011;27858;51.414;0.018;2023-04-06T04:47:45;1.58;;;1.45;;
42186;SDS011;27858;51.414;0.018;2023-04-06T04:50:12;4.75;;;2.15;;
42186;SDS011;27858;51.414;0.018;2023-04-06T04:52:39;1.77;;;1.67;;
42186;SDS011;27858;51.414;0.018;2023-04-06T04:55:06;2.10;;;1.52;;
42186;SDS011;27858;51.414;0.018;2023-04-06T04:57:33;2.35;;;1.92;;
42186;SDS011;27858;51.414;0.018;2023-04-06T04:59:59;4.65;;;2.20;;
42186;SDS011;27858;51.414;0.018;2023-04-06T05:02:27;2.28;;;1.50;;
42186;SDS011;27858;51.414;0.018;2023-04-06T05:04:54;2.00;;;1.90;;
42186;SDS011;27858;51.414;0.018;2023-04-06T05:07:21;2.53;;;2.13;;
42186;SDS011;27858;51.414;0.018;2023-04-06T05:09:48;2.67;;;2.00;;
42186;SDS011;27858;51.414;0.018;2023-04-06T05:12:15;3.20;;;1.75;;
42186;SDS011;27858;51.414;0.018;2023-04-06T05:14:42;1.90;;;1.70;;
42186;SDS011;27858;51.414;0.018;2023-04-06T05:17:09;2.58;;;2.03;;
42186;SDS011;27858;51.414;0.018;2023-04-06T05:19:36;3.00;;;2.53;;
42186;SDS011;27858;51.414;0.018;2023-04-06T05:22:03;2.88;;;1.92;;
42186;SDS011;27858;51.414;0.018;2023-04-06T05:24:29;3.58;;;2.35;;
42186;SDS011;27858;51.414;0.018;2023-04-06T05:26:56;2.78;;;2.03;;
42186;SDS011;27858;51.414;0.018;2023-04-06T05:29:23;4.18;;;2.92;;
42186;SDS011;27858;51.414;0.018;2023-04-06T05:31:50;3.13;;;2.83;;
42186;SDS011;27858;51.414;0.018;2023-04-06T05:34:17;3.47;;;2.70;;
42186;SDS011;27858;51.414;0.018;2023-04-06T05:36:44;3.08;;;2.42;;
42186;SDS011;27858;51.414;0.018;2023-04-06T05:39:11;3.25;;;2.75;;
42186;SDS011;27858;51.414;0.018;2023-04-06T05:41:38;2.83;;;2.35;;
42186;SDS011;27858;51.414;0.018;2023-04-06T05:46:44;9.27;;;5.63;;
42186;SDS011;27858;51.414;0.018;2023-04-06T05:49:11;18.17;;;11.63;;
42186;SDS011;27858;51.414;0.018;2023-04-06T05:51:38;5.97;;;4.03;;
42186;SDS011;27858;51.414;0.018;2023-04-06T05:54:05;5.45;;;4.10;;
42186;SDS011;27858;51.414;0.018;2023-04-06T05:56:32;4.45;;;3.10;;
42186;SDS011;27858;51.414;0.018;2023-04-06T05:58:59;7.03;;;2.63;;
42186;SDS011;27858;51.414;0.018;2023-04-06T06:01:26;4.10;;;2.88;;
42186;SDS011;27858;51.414;0.018;2023-04-06T06:03:53;3.67;;;2.45;;
42186;SDS011;27858;51.414;0.018;2023-04-06T06:06:19;3.42;;;2.53;;
42186;SDS011;27858;51.414;0.018;2023-04-06T06:08:46;4.97;;;3.13;;
42186;SDS011;27858;51.414;0.018;2023-04-06T06:11:13;4.47;;;3.15;;
42186;SDS011;27858;51.414;0.018;2023-04-06T06:13:40;3.72;;;3.15;;
42186;SDS011;27858;51.414;0.018;2023-04-06T06:16:06;3.35;;;2.42;;
42186;SDS011;27858;51.414;0.018;2023-04-06T06:18:33;5.30;;;3.83;;
42186;SDS011;27858;51.414;0.018;2023-04-06T06:21:00;8.23;;;3.15;;
42186;SDS011;27858;51.414;0.018;2023-04-06T06:23:27;5.13;;;3.15;;
42186;SDS011;27858;51.414;0.018;2023-04-06T06:25:54;3.95;;;2.50;;
42186;SDS011;27858;51.414;0.018;2023-04-06T06:28:22;3.72;;;2.40;;
42186;SDS011;27858;51.414;0.018;2023-04-06T06:30:51;3.50;;;2.75;;
42186;SDS011;27858;51.414;0.018;2023-04-06T06:33:18;6.65;;;3.83;;
42186;SDS011;27858;51.414;0.018;2023-04-06T06:35:44;3.33;;;2.13;;
42186;SDS011;27858;51.414;0.018;2023-04-06T06:38:11;3.38;;;1.95;;
42186;SDS011;27858;51.414;0.018;2023-04-06T06:40:39;3.30;;;2.70;;
42186;SDS011;27858;51.414;0.018;2023-04-06T06:43:06;3.88;;;3.08;;
42186;SDS011;27858;51.414;0.018;2023-04-06T06:45:33;3.15;;;2.20;;
42186;SDS011;27858;51.414;0.018;2023-04-06T06:48:03;3.75;;;3.35;;
42186;SDS011;27858;51.414;0.018;2023-04-06T06:50:30;5.25;;;2.95;;
42186;SDS011;27858;51.414;0.018;2023-04-06T06:52:57;2.85;;;2.55;;
42186;SDS011;27858;51.414;0.018;2023-04-06T06:55:24;3.28;;;2.55;;
42186;SDS011;27858;51.414;0.018;2023-04-06T06:57:55;5.43;;;2.20;;
42186;SDS011;27858;51.414;0.018;2023-04-06T07:00:36;3.13;;;2.13;;
42186;SDS011;27858;51.414;0.018;2023-04-06T07:03:02;2.53;;;2.17;;
42186;SDS011;27858;51.414;0.018;2023-04-06T07:05:29;2.85;;;2.50;;
42186;SDS011;27858;51.414;0.018;2023-04-06T07:07:56;1.98;;;1.60;;
42186;SDS011;27858;51.414;0.018;2023-04-06T07:10:23;2.90;;;1.75;;
42186;SDS011;27858;51.414;0.018;2023-04-06T07:12:50;3.33;;;2.53;;
42186;SDS011;27858;51.414;0.018;2023-04-06T07:15:17;4.75;;;2.45;;
42186;SDS011;27858;51.414;0.018;2023-04-06T07:17:43;3.40;;;2.55;;
42186;SDS011;27858;51.414;0.018;2023-04-06T07:20:13;4.00;;;2.25;;
42186;SDS011;27858;51.414;0.018;2023-04-06T07:22:43;1.85;;;1.52;;
42186;SDS011;27858;51.414;0.018;2023-04-06T07:25:14;2.55;;;1.90;;
42186;SDS011;27858;51.414;0.018;2023-04-06T07:27:41;2.60;;;2.40;;
42186;SDS011;27858;51.414;0.018;2023-04-06T07:30:08;2.85;;;2.20;;
42186;SDS011;27858;51.414;0.018;2023-04-06T07:32:35;1.63;;;1.40;;
42186;SDS011;27858;51.414;0.018;2023-04-06T07:35:02;2.80;;;2.05;;
42186;SDS011;27858;51.414;0.018;2023-04-06T07:37:30;2.13;;;1.63;;
42186;SDS011;27858;51.414;0.018;2023-04-06T07:39:56;2.58;;;1.73;;
42186;SDS011;27858;51.414;0.018;2023-04-06T07:42:23;1.77;;;1.40;;
42186;SDS011;27858;51.414;0.018;2023-04-06T07:44:50;3.42;;;2.35;;
42186;SDS011;27858;51.414;0.018;2023-04-06T07:47:17;1.95;;;1.33;;
42186;SDS011;27858;51.414;0.018;2023-04-06T07:49:43;1.73;;;1.42;;
42186;SDS011;27858;51.414;0.018;2023-04-06T07:52:11;1.52;;;1.10;;
42186;SDS011;27858;51.414;0.018;2023-04-06T07:54:38;2.03;;;1.27;;
42186;SDS011;27858;51.414;0.018;2023-04-06T07:57:04;1.88;;;1.35;;
42186;SDS011;27858;51.414;0.018;2023-04-06T07:59:31;3.28;;;1.63;;
42186;SDS011;27858;51.414;0.018;2023-04-06T08:01:58;3.53;;;1.50;;
42186;SDS011;27858;51.414;0.018;2023-04-06T08:04:24;1.15;;;1.05;;
42186;SDS011;27858;51.414;0.018;2023-04-06T08:06:51;1.10;;;0.85;;
42186;SDS011;27858;51.414;0.018;2023-04-06T08:09:18;3.53;;;1.60;;
42186;SDS011;27858;51.414;0.018;2023-04-06T08:11:45;0.75;;;0.75;;
42186;SDS011;27858;51.414;0.018;2023-04-06T08:14:14;4.55;;;1.55;;
42186;SDS011;27858;51.414;0.018;2023-04-06T08:16:41;2.42;;;1.20;;
42186;SDS011;27858;51.414;0.018;2023-04-06T08:19:08;1.67;;;0.95;;
42186;SDS011;27858;51.414;0.018;2023-04-06T08:21:35;2.38;;;1.30;;
42186;SDS011;27858;51.414;0.018;2023-04-06T08:24:02;1.77;;;0.68;;
42186;SDS011;27858;51.414;0.018;2023-04-06T08:26:29;3.55;;;1.25;;
42186;SDS011;27858;51.414;0.018;2023-04-06T08:28:56;2.63;;;1.23;;
42186;SDS011;27858;51.414;0.018;2023-04-06T08:31:23;3.72;;;1.23;;
42186;SDS011;27858;51.414;0.018;2023-04-06T08:33:49;4.82;;;0.90;;
42186;SDS011;27858;51.414;0.018;2023-04-06T08:36:16;4.88;;;1.52;;
42186;SDS011;27858;51.414;0.018;2023-04-06T08:38:46;6.10;;;1.77;;
42186;SDS011;27858;51.414;0.018;2023-04-06T08:41:13;5.18;;;1.08;;
42186;SDS011;27858;51.414;0.018;2023-04-06T08:43:43;7.93;;;2.33;;
42186;SDS011;27858;51.414;0.018;2023-04-06T08:46:13;7.97;;;1.42;;
42186;SDS011;27858;51.414;0.018;2023-04-06T08:48:41;1.98;;;0.98;;
42186;SDS011;27858;51.414;0.018;2023-04-06T08:51:09;4.75;;;1.25;;
42186;SDS011;27858;51.414;0.018;2023-04-06T08:53:36;3.65;;;1.33;;
42186;SDS011;27858;51.414;0.018;2023-04-06T08:56:04;4.35;;;1.58;;
42186;SDS011;27858;51.414;0.018;2023-04-06T08:58:35;2.72;;;0.95;;
42186;SDS011;27858;51.414;0.018;2023-04-06T09:01:08;6.65;;;1.02;;
42186;SDS011;27858;51.414;0.018;2023-04-06T09:03:38;3.45;;;1.23;;
42186;SDS011;27858;51.414;0.018;2023-04-06T09:06:07;5.57;;;1.40;;
42186;SDS011;27858;51.414;0.018;2023-04-06T09:08:37;5.22;;;1.63;;
42186;SDS011;27858;51.414;0.018;2023-04-06T09:11:05;2.97;;;1.05;;
42186;SDS011;27858;51.414;0.018;2023-04-06T09:13:44;8.65;;;2.15;;
42186;SDS011;27858;51.414;0.018;2023-04-06T09:18:42;4.57;;;1.20;;
42186;SDS011;27858;51.414;0.018;2023-04-06T09:21:09;7.72;;;1.48;;
42186;SDS011;27858;51.414;0.018;2023-04-06T09:23:37;6.32;;;1.50;;
42186;SDS011;27858;51.414;0.018;2023-04-06T09:26:05;9.40;;;1.00;;
42186;SDS011;27858;51.414;0.018;2023-04-06T09:31:21;6.18;;;1.27;;
42186;SDS011;27858;51.414;0.018;2023-04-06T09:33:50;3.13;;;2.00;;
42186;SDS011;27858;51.414;0.018;2023-04-06T09:36:18;6.78;;;1.70;;
42186;SDS011;27858;51.414;0.018;2023-04-06T09:38:55;5.80;;;1.75;;
42186;SDS011;27858;51.414;0.018;2023-04-06T09:41:27;7.47;;;1.85;;
42186;SDS011;27858;51.414;0.018;2023-04-06T09:44:08;3.17;;;1.80;;
42186;SDS011;27858;51.414;0.018;2023-04-06T09:46:42;9.63;;;2.40;;
42186;SDS011;27858;51.414;0.018;2023-04-06T09:49:30;9.52;;;1.63;;
42186;SDS011;27858;51.414;0.018;2023-04-06T09:52:06;8.85;;;2.00;;
42186;SDS011;27858;51.414;0.018;2023-04-06T09:54:37;3.58;;;1.42;;
42186;SDS011;27858;51.414;0.018;2023-04-06T09:57:10;4.10;;;1.65;;
42186;SDS011;27858;51.414;0.018;2023-04-06T09:59:48;6.20;;;1.80;;
42186;SDS011;27858;51.414;0.018;2023-04-06T10:05:35;5.40;;;1.88;;
42186;SDS011;27858;51.414;0.018;2023-04-06T10:08:08;3.45;;;1.20;;
42186;SDS011;27858;51.414;0.018;2023-04-06T10:13:06;7.93;;;1.95;;
42186;SDS011;27858;51.414;0.018;2023-04-06T10:15:34;6.65;;;1.73;;
42186;SDS011;27858;51.414;0.018;2023-04-06T10:18:00;3.78;;;1.75;;
42186;SDS011;27858;51.414;0.018;2023-04-06T10:26:03;4.57;;;2.15;;
42186;SDS011;27858;51.414;0.018;2023-04-06T10:28:30;5.55;;;1.42;;
42186;SDS011;27858;51.414;0.018;2023-04-06T10:31:01;5.97;;;1.52;;
42186;SDS011;27858;51.414;0.018;2023-04-06T10:33:30;3.40;;;1.65;;
42186;SDS011;27858;51.414;0.018;2023-04-06T10:35:57;6.57;;;1.50;;
42186;SDS011;27858;51.414;0.018;2023-04-06T10:38:39;3.40;;;1.20;;
42186;SDS011;27858;51.414;0.018;2023-04-06T10:41:08;3.00;;;1.30;;
42186;SDS011;27858;51.414;0.018;2023-04-06T10:43:36;2.60;;;0.85;;
42186;SDS011;27858;51.414;0.018;2023-04-06T10:46:05;3.22;;;0.90;;
42186;SDS011;27858;51.414;0.018;2023-04-06T10:48:43;2.50;;;1.00;;
42186;SDS011;27858;51.414;0.018;2023-04-06T10:51:16;5.38;;;1.45;;
42186;SDS011;27858;51.414;0.018;2023-04-06T10:53:45;1.60;;;1.10;;
42186;SDS011;27858;51.414;0.018;2023-04-06T10:56:16;3.45;;;0.98;;
42186;SDS011;27858;51.414;0.018;2023-04-06T10:58:48;3.97;;;1.30;;
42186;SDS011;27858;51.414;0.018;2023-04-06T11:01:16;6.13;;;1.70;;
42186;SDS011;27858;51.414;0.018;2023-04-06T11:03:48;4.32;;;1.30;;
42186;SDS011;27858;51.414;0.018;2023-04-06T11:06:28;2.28;;;0.75;;
42186;SDS011;27858;51.414;0.018;2023-04-06T11:08:57;1.67;;;0.93;;
42186;SDS011;27858;51.414;0.018;2023-04-06T11:11:24;0.70;;;0.60;;
42186;SDS011;27858;51.414;0.018;2023-04-06T11:16:22;3.72;;;1.40;;
42186;SDS011;27858;51.414;0.018;2023-04-06T11:18:54;0.80;;;0.75;;
42186;SDS011;27858;51.414;0.018;2023-04-06T11:21:32;2.67;;;1.10;;
42186;SDS011;27858;51.414;0.018;2023-04-06T11:24:12;1.00;;;0.77;;
42186;SDS011;27858;51.414;0.018;2023-04-06T11:26:42;5.07;;;1.80;;
42186;SDS011;27858;51.414;0.018;2023-04-06T11:29:23;4.28;;;1.27;;
42186;SDS011;27858;51.414;0.018;2023-04-06T11:31:53;2.15;;;0.60;;
42186;SDS011;27858;51.414;0.018;2023-04-06T11:34:24;1.87;;;0.53;;
42186;SDS011;27858;51.414;0.018;2023-04-06T11:36:59;2.35;;;0.95;;
42186;SDS011;27858;51.414;0.018;2023-04-06T11:39:40;3.97;;;1.25;;
42186;SDS011;27858;51.414;0.018;2023-04-06T11:42:09;2.47;;;1.63;;
42186;SDS011;27858;51.414;0.018;2023-04-06T11:44:36;4.13;;;1.35;;
42186;SDS011;27858;51.414;0.018;2023-04-06T11:47:12;3.97;;;1.00;;
42186;SDS011;27858;51.414;0.018;2023-04-06T11:49:39;2.30;;;1.23;;
42186;SDS011;27858;51.414;0.018;2023-04-06T11:52:18;3.65;;;1.00;;
42186;SDS011;27858;51.414;0.018;2023-04-06T11:54:52;1.65;;;0.70;;
42186;SDS011;27858;51.414;0.018;2023-04-06T11:57:21;1.63;;;0.90;;
42186;SDS011;27858;51.414;0.018;2023-04-06T11:59:51;2.67;;;1.02;;
42186;SDS011;27858;51.414;0.018;2023-04-06T12:02:19;2.28;;;1.23;;
42186;SDS011;27858;51.414;0.018;2023-04-06T12:04:46;1.75;;;0.55;;
42186;SDS011;27858;51.414;0.018;2023-04-06T12:07:13;2.70;;;1.00;;
42186;SDS011;27858;51.414;0.018;2023-04-06T12:09:39;1.13;;;0.80;;
42186;SDS011;27858;51.414;0.018;2023-04-06T12:12:07;2.45;;;0.90;;
42186;SDS011;27858;51.414;0.018;2023-04-06T12:17:05;1.60;;;1.07;;
42186;SDS011;27858;51.414;0.018;2023-04-06T12:19:32;4.82;;;1.85;;
42186;SDS011;27858;51.414;0.018;2023-04-06T12:21:59;1.85;;;0.98;;
42186;SDS011;27858;51.414;0.018;2023-04-06T12:24:26;2.42;;;0.95;;
42186;SDS011;27858;51.414;0.018;2023-04-06T12:26:54;1.60;;;0.80;;
42186;SDS011;27858;51.414;0.018;2023-04-06T12:29:34;1.73;;;0.60;;
42186;SDS011;27858;51.414;0.018;2023-04-06T12:32:01;1.27;;;0.70;;
42186;SDS011;27858;51.414;0.018;2023-04-06T12:34:28;5.57;;;1.02;;
42186;SDS011;27858;51.414;0.018;2023-04-06T12:36:55;0.60;;;0.40;;
42186;SDS011;27858;51.414;0.018;2023-04-06T12:39:22;6.28;;;1.20;;
42186;SDS011;27858;51.414;0.018;2023-04-06T12:41:51;2.05;;;0.90;;
42186;SDS011;27858;51.414;0.018;2023-04-06T12:44:18;2.22;;;0.80;;
42186;SDS011;27858;51.414;0.018;2023-04-06T12:46:45;1.38;;;0.60;;
42186;SDS011;27858;51.414;0.018;2023-04-06T12:49:12;0.63;;;0.52;;
42186;SDS011;27858;51.414;0.018;2023-04-06T12:51:39;0.98;;;0.57;;
42186;SDS011;27858;51.414;0.018;2023-04-06T12:54:06;0.57;;;0.40;;
42186;SDS011;27858;51.414;0.018;2023-04-06T12:56:33;1.45;;;0.30;;
42186;SDS011;27858;51.414;0.018;2023-04-06T12:58:59;4.38;;;1.05;;
42186;SDS011;27858;51.414;0.018;2023-04-06T13:01:27;2.25;;;0.70;;
42186;SDS011;27858;51.414;0.018;2023-04-06T13:03:55;1.75;;;1.08;;
42186;SDS011;27858;51.414;0.018;2023-04-06T13:06:22;1.20;;;0.55;;
42186;SDS011;27858;51.414;0.018;2023-04-06T13:08:54;1.77;;;0.47;;
42186;SDS011;27858;51.414;0.018;2023-04-06T13:11:21;0.55;;;0.40;;
42186;SDS011;27858;51.414;0.018;2023-04-06T13:13:52;1.40;;;0.60;;
42186;SDS011;27858;51.414;0.018;2023-04-06T13:16:20;1.73;;;0.65;;
42186;SDS011;27858;51.414;0.018;2023-04-06T13:18:47;1.40;;;0.47;;
42186;SDS011;27858;51.414;0.018;2023-04-06T13:21:16;0.85;;;0.77;;
42186;SDS011;27858;51.414;0.018;2023-04-06T13:23:43;1.08;;;0.70;;
42186;SDS011;27858;51.414;0.018;2023-04-06T13:26:10;1.90;;;0.82;;
42186;SDS011;27858;51.414;0.018;2023-04-06T13:28:39;0.75;;;0.22;;
42186;SDS011;27858;51.414;0.018;2023-04-06T13:31:07;0.70;;;0.47;;
42186;SDS011;27858;51.414;0.018;2023-04-06T13:33:34;0.65;;;0.40;;
42186;SDS011;27858;51.414;0.018;2023-04-06T13:36:04;2.25;;;0.40;;
42186;SDS011;27858;51.414;0.018;2023-04-06T13:38:33;2.90;;;0.52;;
42186;SDS011;27858;51.414;0.018;2023-04-06T13:41:00;1.40;;;0.68;;
42186;SDS011;27858;51.414;0.018;2023-04-06T13:43:27;1.17;;;0.63;;
42186;SDS011;27858;51.414;0.018;2023-04-06T13:45:56;1.65;;;0.55;;
42186;SDS011;27858;51.414;0.018;2023-04-06T13:48:24;2.20;;;0.82;;
42186;SDS011;27858;51.414;0.018;2023-04-06T13:50:52;1.65;;;0.75;;
42186;SDS011;27858;51.414;0.018;2023-04-06T13:53:19;3.25;;;0.80;;
42186;SDS011;27858;51.414;0.018;2023-04-06T13:55:55;2.33;;;0.68;;
42186;SDS011;27858;51.414;0.018;2023-04-06T13:58:22;3.28;;;0.68;;
42186;SDS011;27858;51.414;0.018;2023-04-06T14:00:49;8.45;;;0.75;;
42186;SDS011;27858;51.414;0.018;2023-04-06T14:03:17;1.45;;;0.68;;
42186;SDS011;27858;51.414;0.018;2023-04-06T14:05:44;5.93;;;0.77;;
42186;SDS011;27858;51.414;0.018;2023-04-06T14:08:11;1.98;;;0.80;;
42186;SDS011;27858;51.414;0.018;2023-04-06T14:10:38;0.85;;;0.50;;
42186;SDS011;27858;51.414;0.018;2023-04-06T14:13:08;3.28;;;1.00;;
42186;SDS011;27858;51.414;0.018;2023-04-06T14:15:35;1.42;;;0.70;;
42186;SDS011;27858;51.414;0.018;2023-04-06T14:18:02;4.05;;;0.57;;
42186;SDS011;27858;51.414;0.018;2023-04-06T14:20:32;7.03;;;1.08;;
42186;SDS011;27858;51.414;0.018;2023-04-06T14:23:02;1.67;;;0.63;;
42186;SDS011;27858;51.414;0.018;2023-04-06T14:25:30;2.35;;;0.55;;
42186;SDS011;27858;51.414;0.018;2023-04-06T14:28:01;1.50;;;0.68;;
42186;SDS011;27858;51.414;0.018;2023-04-06T14:30:29;2.03;;;0.63;;
42186;SDS011;27858;51.414;0.018;2023-04-06T14:32:58;1.75;;;0.35;;
42186;SDS011;27858;51.414;0.018;2023-04-06T14:35:25;2.25;;;1.58;;
42186;SDS011;27858;51.414;0.018;2023-04-06T14:37:54;2.03;;;1.00;;
42186;SDS011;27858;51.414;0.018;2023-04-06T14:40:23;1.17;;;0.93;;
42186;SDS011;27858;51.414;0.018;2023-04-06T14:42:50;2.70;;;0.93;;
42186;SDS011;27858;51.414;0.018;2023-04-06T14:45:17;2.90;;;0.77;;
42186;SDS011;27858;51.414;0.018;2023-04-06T14:47:47;1.60;;;0.55;;
42186;SDS011;27858;51.414;0.018;2023-04-06T14:50:14;0.90;;;0.47;;
42186;SDS011;27858;51.414;0.018;2023-04-06T14:52:41;3.67;;;1.23;;
42186;SDS011;27858;51.414;0.018;2023-04-06T14:55:08;1.77;;;1.02;;
42186;SDS011;27858;51.414;0.018;2023-04-06T14:57:35;1.42;;;0.30;;
42186;SDS011;27858;51.414;0.018;2023-04-06T15:00:02;1.92;;;0.60;;
42186;SDS011;27858;51.414;0.018;2023-04-06T15:02:29;2.83;;;1.02;;
42186;SDS011;27858;51.414;0.018;2023-04-06T15:04:58;2.00;;;0.75;;
42186;SDS011;27858;51.414;0.018;2023-04-06T15:07:25;5.40;;;1.35;;
42186;SDS011;27858;51.414;0.018;2023-04-06T15:09:52;1.23;;;0.60;;
42186;SDS011;27858;51.414;0.018;2023-04-06T15:12:18;1.63;;;0.40;;
42186;SDS011;27858;51.414;0.018;2023-04-06T15:14:45;0.73;;;0.45;;
42186;SDS011;27858;51.414;0.018;2023-04-06T15:17:12;5.45;;;0.52;;
42186;SDS011;27858;51.414;0.018;2023-04-06T15:19:39;1.33;;;0.80;;
42186;SDS011;27858;51.414;0.018;2023-04-06T15:22:06;3.33;;;0.98;;
42186;SDS011;27858;51.414;0.018;2023-04-06T15:24:33;1.73;;;1.17;;
42186;SDS011;27858;51.414;0.018;2023-04-06T15:27:00;1.83;;;1.00;;
42186;SDS011;27858;51.414;0.018;2023-04-06T15:29:29;1.17;;;0.65;;
42186;SDS011;27858;51.414;0.018;2023-04-06T15:31:56;1.27;;;0.52;;
42186;SDS011;27858;51.414;0.018;2023-04-06T15:34:23;2.13;;;0.90;;
42186;SDS011;27858;51.414;0.018;2023-04-06T15:36:50;1.10;;;0.52;;
42186;SDS011;27858;51.414;0.018;2023-04-06T15:39:17;1.33;;;0.80;;
42186;SDS011;27858;51.414;0.018;2023-04-06T15:41:44;1.17;;;0.82;;
42186;SDS011;27858;51.414;0.018;2023-04-06T15:44:11;3.58;;;0.82;;
42186;SDS011;27858;51.414;0.018;2023-04-06T15:46:37;1.42;;;0.55;;
42186;SDS011;27858;51.414;0.018;2023-04-06T15:49:04;2.67;;;0.80;;
42186;SDS011;27858;51.414;0.018;2023-04-06T15:51:31;1.55;;;0.70;;
42186;SDS011;27858;51.414;0.018;2023-04-06T15:53:58;1.48;;;0.73;;
42186;SDS011;27858;51.414;0.018;2023-04-06T15:56:25;0.60;;;0.50;;
42186;SDS011;27858;51.414;0.018;2023-04-06T15:58:52;1.80;;;0.80;;
42186;SDS011;27858;51.414;0.018;2023-04-06T16:01:18;4.68;;;0.68;;
42186;SDS011;27858;51.414;0.018;2023-04-06T16:03:45;1.35;;;0.75;;
42186;SDS011;27858;51.414;0.018;2023-04-06T16:06:12;2.50;;;0.80;;
42186;SDS011;27858;51.414;0.018;2023-04-06T16:08:39;1.48;;;1.05;;
42186;SDS011;27858;51.414;0.018;2023-04-06T16:11:07;5.22;;;1.88;;
42186;SDS011;27858;51.414;0.018;2023-04-06T16:13:34;2.15;;;1.50;;
42186;SDS011;27858;51.414;0.018;2023-04-06T16:16:01;2.47;;;0.88;;
42186;SDS011;27858;51.414;0.018;2023-04-06T16:18:29;1.27;;;0.88;;
42186;SDS011;27858;51.414;0.018;2023-04-06T16:20:58;2.47;;;0.93;;
42186;SDS011;27858;51.414;0.018;2023-04-06T16:23:25;3.50;;;1.20;;
42186;SDS011;27858;51.414;0.018;2023-04-06T16:25:52;2.30;;;1.00;;
42186;SDS011;27858;51.414;0.018;2023-04-06T16:28:23;2.00;;;1.05;;
42186;SDS011;27858;51.414;0.018;2023-04-06T16:30:50;3.92;;;1.50;;
42186;SDS011;27858;51.414;0.018;2023-04-06T16:33:17;2.30;;;0.82;;
42186;SDS011;27858;51.414;0.018;2023-04-06T16:35:45;1.75;;;1.40;;
42186;SDS011;27858;51.414;0.018;2023-04-06T16:38:12;0.45;;;0.43;;
42186;SDS011;27858;51.414;0.018;2023-04-06T16:40:40;1.55;;;0.82;;
42186;SDS011;27858;51.414;0.018;2023-04-06T16:43:07;1.40;;;0.60;;
42186;SDS011;27858;51.414;0.018;2023-04-06T16:45:35;0.70;;;0.50;;
42186;SDS011;27858;51.414;0.018;2023-04-06T16:48:03;4.25;;;0.63;;
42186;SDS011;27858;51.414;0.018;2023-04-06T16:50:31;3.40;;;0.63;;
42186;SDS011;27858;51.414;0.018;2023-04-06T16:52:58;2.40;;;0.80;;
42186;SDS011;27858;51.414;0.018;2023-04-06T16:55:24;2.22;;;0.68;;
42186;SDS011;27858;51.414;0.018;2023-04-06T16:57:53;0.55;;;0.40;;
42186;SDS011;27858;51.414;0.018;2023-04-06T17:00:21;0.95;;;0.40;;
42186;SDS011;27858;51.414;0.018;2023-04-06T17:02:48;0.50;;;0.50;;
42186;SDS011;27858;51.414;0.018;2023-04-06T17:05:15;12.85;;;1.45;;
42186;SDS011;27858;51.414;0.018;2023-04-06T17:07:47;2.10;;;0.57;;
42186;SDS011;27858;51.414;0.018;2023-04-06T17:10:13;0.98;;;0.75;;
42186;SDS011;27858;51.414;0.018;2023-04-06T17:12:44;1.90;;;0.73;;
42186;SDS011;27858;51.414;0.018;2023-04-06T17:15:12;8.52;;;1.60;;
42186;SDS011;27858;51.414;0.018;2023-04-06T17:17:39;1.23;;;0.50;;
42186;SDS011;27858;51.414;0.018;2023-04-06T17:20:06;1.65;;;0.75;;
42186;SDS011;27858;51.414;0.018;2023-04-06T17:22:34;1.98;;;0.77;;
42186;SDS011;27858;51.414;0.018;2023-04-06T17:25:01;2.63;;;1.02;;
42186;SDS011;27858;51.414;0.018;2023-04-06T17:27:30;3.30;;;1.10;;
42186;SDS011;27858;51.414;0.018;2023-04-06T17:29:57;2.78;;;1.15;;
42186;SDS011;27858;51.414;0.018;2023-04-06T17:32:28;3.55;;;0.75;;
42186;SDS011;27858;51.414;0.018;2023-04-06T17:34:55;3.33;;;1.13;;
42186;SDS011;27858;51.414;0.018;2023-04-06T17:37:21;2.05;;;0.93;;
42186;SDS011;27858;51.414;0.018;2023-04-06T17:39:48;1.73;;;0.80;;
42186;SDS011;27858;51.414;0.018;2023-04-06T17:42:15;2.78;;;0.65;;
42186;SDS011;27858;51.414;0.018;2023-04-06T17:44:43;2.83;;;1.13;;
42186;SDS011;27858;51.414;0.018;2023-04-06T17:47:16;3.25;;;1.15;;
42186;SDS011;27858;51.414;0.018;2023-04-06T17:49:43;1.58;;;0.85;;
42186;SDS011;27858;51.414;0.018;2023-04-06T17:52:11;3.20;;;1.70;;
42186;SDS011;27858;51.414;0.018;2023-04-06T17:54:37;1.75;;;1.05;;
42186;SDS011;27858;51.414;0.018;2023-04-06T17:57:04;2.38;;;0.70;;
42186;SDS011;27858;51.414;0.018;2023-04-06T17:59:32;20.00;;;2.05;;
42186;SDS011;27858;51.414;0.018;2023-04-06T18:01:59;2.83;;;1.50;;
42186;SDS011;27858;51.414;0.018;2023-04-06T18:04:28;5.68;;;1.85;;
42186;SDS011;27858;51.414;0.018;2023-04-06T18:06:55;4.53;;;2.08;;
42186;SDS011;27858;51.414;0.018;2023-04-06T18:09:22;6.78;;;1.58;;
42186;SDS011;27858;51.414;0.018;2023-04-06T18:11:48;5.25;;;1.73;;
42186;SDS011;27858;51.414;0.018;2023-04-06T18:14:15;2.75;;;0.90;;
42186;SDS011;27858;51.414;0.018;2023-04-06T18:16:42;2.08;;;1.40;;
42186;SDS011;27858;51.414;0.018;2023-04-06T18:19:09;4.38;;;1.98;;
42186;SDS011;27858;51.414;0.018;2023-04-06T18:21:36;6.35;;;1.48;;
42186;SDS011;27858;51.414;0.018;2023-04-06T18:24:02;2.90;;;1.48;;
42186;SDS011;27858;51.414;0.018;2023-04-06T18:26:32;3.45;;;1.00;;
42186;SDS011;27858;51.414;0.018;2023-04-06T18:28:59;1.40;;;1.13;;
42186;SDS011;27858;51.414;0.018;2023-04-06T18:31:26;1.85;;;0.95;;
42186;SDS011;27858;51.414;0.018;2023-04-06T18:33:53;2.55;;;1.13;;
42186;SDS011;27858;51.414;0.018;2023-04-06T18:36:20;1.98;;;1.08;;
42186;SDS011;27858;51.414;0.018;2023-04-06T18:38:47;2.25;;;1.30;;
42186;SDS011;27858;51.414;0.018;2023-04-06T18:41:14;4.47;;;1.38;;
42186;SDS011;27858;51.414;0.018;2023-04-06T18:43:43;2.92;;;1.33;;
42186;SDS011;27858;51.414;0.018;2023-04-06T18:46:13;1.55;;;1.38;;
42186;SDS011;27858;51.414;0.018;2023-04-06T18:48:41;7.32;;;1.77;;
42186;SDS011;27858;51.414;0.018;2023-04-06T18:51:08;3.10;;;1.13;;
42186;SDS011;27858;51.414;0.018;2023-04-06T18:53:35;3.70;;;1.10;;
42186;SDS011;27858;51.414;0.018;2023-04-06T18:56:19;4.65;;;1.38;;
42186;SDS011;27858;51.414;0.018;2023-04-06T18:58:46;2.95;;;1.17;;
42186;SDS011;27858;51.414;0.018;2023-04-06T19:01:21;4.53;;;1.40;;
42186;SDS011;27858;51.414;0.018;2023-04-06T19:03:50;1.90;;;1.13;;
42186;SDS011;27858;51.414;0.018;2023-04-06T19:06:18;3.03;;;1.40;;
42186;SDS011;27858;51.414;0.018;2023-04-06T19:08:46;3.85;;;1.98;;
42186;SDS011;27858;51.414;0.018;2023-04-06T19:11:14;2.78;;;1.40;;
42186;SDS011;27858;51.414;0.018;2023-04-06T19:13:41;5.07;;;1.33;;
42186;SDS011;27858;51.414;0.018;2023-04-06T19:16:15;3.80;;;1.73;;
42186;SDS011;27858;51.414;0.018;2023-04-06T19:18:42;7.03;;;1.67;;
42186;SDS011;27858;51.414;0.018;2023-04-06T19:23:44;2.90;;;1.77;;